Time;durP1;ratioP1;P1;durP2;ratioP2;P2;SDS_P1;SDS_P2;PMS_P1;PMS_P2;Temp;Humidity;BMP_temperature;BMP_pressure;BME280_temperature;BME280_humidity;BME280_pressure;Samples;Min_cycle;Max_cycle;Signal;HPM_P1;HPM_P2
2021/11/21 00:02:08;;;;;;;1.23;1.00;;;;;;;25.72;32.83;96507.00;5041159;28;20082;-32
2021/11/21 00:04:34;;;;;;;1.13;0.82;;;;;;;25.72;32.76;96498.28;5046229;28;20032;-31
2021/11/21 00:07:00;;;;;;;0.95;0.90;;;;;;;25.71;32.63;96497.44;5049089;28;20028;-31
2021/11/21 00:09:25;;;;;;;1.52;1.00;;;;;;;25.72;32.80;96500.91;5048486;28;20400;-31
2021/11/21 00:11:51;;;;;;;2.55;1.08;;;;;;;25.71;32.67;96494.81;5051647;28;20611;-29
2021/11/21 00:14:16;;;;;;;5.22;1.42;;;;;;;25.70;32.52;96491.34;5046957;28;20032;-30
2021/11/21 00:16:41;;;;;;;5.95;1.48;;;;;;;25.69;32.40;96488.81;5042149;28;20099;-31
2021/11/21 00:19:07;;;;;;;7.60;1.60;;;;;;;25.68;32.38;96492.38;5045800;28;20525;-30
2021/11/21 00:21:32;;;;;;;5.25;1.30;;;;;;;25.68;32.31;96497.63;5046345;28;20036;-29
2021/11/21 00:23:58;;;;;;;8.10;1.30;;;;;;;25.65;32.57;96492.53;5047070;28;20036;-29
2021/11/21 00:26:23;;;;;;;3.97;1.58;;;;;;;25.63;32.54;96486.56;5046737;28;20488;-32
2021/11/21 00:28:50;;;;;;;2.17;1.27;;;;;;;25.62;32.63;96479.63;5039893;28;20174;-30
2021/11/21 00:31:16;;;;;;;4.00;1.15;;;;;;;25.62;32.50;96474.38;5043324;28;20116;-29
2021/11/21 00:33:41;;;;;;;4.28;1.20;;;;;;;25.62;32.47;96477.81;5055891;28;20043;-30
2021/11/21 00:36:07;;;;;;;4.55;1.00;;;;;;;25.63;32.44;96478.69;5040534;28;20041;-28
2021/11/21 00:38:32;;;;;;;4.60;1.45;;;;;;;25.63;32.55;96460.31;5038327;28;20024;-28
2021/11/21 00:40:58;;;;;;;2.20;1.17;;;;;;;25.63;32.63;96453.25;5036590;28;20539;-33
2021/11/21 00:43:23;;;;;;;2.13;1.10;;;;;;;25.63;32.57;96447.19;5037513;28;20029;-30
2021/11/21 00:45:49;;;;;;;2.50;1.02;;;;;;;25.64;32.57;96435.75;5037452;28;20028;-29
2021/11/21 00:48:20;;;;;;;3.80;1.15;;;;;;;25.63;32.67;96429.66;5036514;28;20025;-33
2021/11/21 00:50:46;;;;;;;3.90;1.35;;;;;;;25.65;32.67;96437.44;5036988;28;20772;-30
2021/11/21 00:53:11;;;;;;;3.40;1.50;;;;;;;25.64;32.61;96425.25;5036295;28;20611;-32
2021/11/21 00:55:43;;;;;;;3.92;1.05;;;;;;;25.64;32.54;96430.50;5036244;28;20439;-28
2021/11/21 00:58:10;;;;;;;1.35;0.95;;;;;;;25.65;32.67;96427.78;5050999;28;20028;-32
2021/11/21 01:00:37;;;;;;;0.85;0.68;;;;;;;25.65;32.70;96437.44;5035661;28;20087;-34
2021/11/21 01:03:02;;;;;;;1.98;1.00;;;;;;;25.66;32.63;96439.97;5037625;28;20020;-30
2021/11/21 01:05:27;;;;;;;1.92;1.00;;;;;;;25.67;32.53;96443.44;5038665;28;21441;-32
2021/11/21 01:07:53;;;;;;;4.20;1.10;;;;;;;25.67;32.56;96448.69;5034620;28;20036;-30
2021/11/21 01:10:19;;;;;;;2.20;0.98;;;;;;;25.65;32.50;96438.28;5040031;28;20528;-31
2021/11/21 01:12:44;;;;;;;1.38;0.80;;;;;;;25.66;32.62;96432.09;5056378;28;20056;-31
2021/11/21 01:15:12;;;;;;;2.00;1.30;;;;;;;25.67;32.47;96452.16;5038451;28;20040;-35
2021/11/21 01:17:38;;;;;;;0.88;0.80;;;;;;;25.67;32.68;96443.44;5037402;28;20028;-31
2021/11/21 01:20:05;;;;;;;1.88;0.80;;;;;;;25.67;32.48;96440.81;5036897;28;20753;-30
2021/11/21 01:22:31;;;;;;;1.25;0.88;;;;;;;25.67;32.48;96438.22;5038053;28;20048;-30
2021/11/21 01:24:57;;;;;;;2.97;1.00;;;;;;;25.65;32.49;96433.03;5040446;28;20025;-30
2021/11/21 01:27:22;;;;;;;2.92;1.00;;;;;;;25.66;32.57;96424.22;5048560;28;20035;-30
2021/11/21 01:29:48;;;;;;;2.13;0.93;;;;;;;25.67;32.52;96425.09;5039243;28;20024;-30
2021/11/21 01:32:13;;;;;;;2.85;1.10;;;;;;;25.66;32.45;96424.22;5041180;28;22775;-31
2021/11/21 01:34:39;;;;;;;2.08;1.05;;;;;;;25.67;32.51;96425.09;5035989;28;20634;-27
2021/11/21 01:37:04;;;;;;;2.72;0.90;;;;;;;25.66;32.35;96418.97;5036801;28;20033;-36
2021/11/21 01:39:29;;;;;;;2.45;1.00;;;;;;;25.65;32.50;96411.19;5039560;28;20020;-30
2021/11/21 01:41:55;;;;;;;3.17;1.00;;;;;;;25.65;32.45;96400.69;5042939;28;20740;-29
2021/11/21 01:44:20;;;;;;;1.70;1.00;;;;;;;25.64;32.35;96405.13;5054984;28;20025;-29
2021/11/21 01:46:47;;;;;;;0.80;0.80;;;;;;;25.65;32.42;96395.44;5054251;28;20029;-31
2021/11/21 01:49:12;;;;;;;2.58;0.73;;;;;;;25.64;32.47;96399.00;5049760;28;20033;-35
2021/11/21 01:51:38;;;;;;;1.30;0.90;;;;;;;25.64;32.61;96405.13;5044315;28;20028;-30
2021/11/21 01:54:04;;;;;;;1.15;0.82;;;;;;;25.64;32.49;96399.00;5042225;28;20028;-30
2021/11/21 01:56:30;;;;;;;1.15;0.90;;;;;;;25.64;32.43;96396.38;5042179;28;20775;-30
2021/11/21 01:58:55;;;;;;;1.23;0.80;;;;;;;25.64;32.58;96401.63;5047386;28;20121;-30
2021/11/21 02:01:21;;;;;;;1.50;0.90;;;;;;;25.62;32.46;96396.47;5047908;28;20507;-33
2021/11/21 02:03:47;;;;;;;1.50;0.80;;;;;;;25.64;32.43;96393.75;5047250;28;20028;-31
2021/11/21 02:06:12;;;;;;;1.08;0.82;;;;;;;25.63;32.39;96402.59;5048791;28;21074;-30
2021/11/21 02:08:37;;;;;;;0.68;0.60;;;;;;;25.63;32.44;96398.16;5049783;28;20048;-31
2021/11/21 02:11:03;;;;;;;1.55;0.90;;;;;;;25.62;32.54;96398.28;5050929;28;20028;-30
2021/11/21 02:13:28;;;;;;;1.73;0.70;;;;;;;25.62;32.55;96401.72;5045320;28;20479;-33
2021/11/21 02:15:54;;;;;;;2.55;1.17;;;;;;;25.63;32.35;96399.97;5042247;28;20036;-29
2021/11/21 02:18:21;;;;;;;8.48;1.27;;;;;;;25.60;31.95;96387.88;5043300;28;20028;-33
2021/11/21 02:20:51;;;;;;;2.25;1.23;;;;;;;25.60;31.71;96387.00;5058145;28;20078;-31
2021/11/21 02:23:17;;;;;;;1.35;0.82;;;;;;;25.59;32.02;96383.53;5046752;28;20027;-29
2021/11/21 02:25:42;;;;;;;2.85;0.80;;;;;;;25.58;32.05;96389.72;5043742;28;20028;-30
2021/11/21 02:28:07;;;;;;;2.20;0.90;;;;;;;25.59;32.29;96390.56;5046767;28;20029;-30
2021/11/21 02:30:33;;;;;;;1.02;0.80;;;;;;;25.59;32.24;96390.56;5056974;28;20502;-32
2021/11/21 02:32:58;;;;;;;7.25;1.10;;;;;;;25.57;32.37;96378.41;5043451;28;20032;-28
2021/11/21 02:35:24;;;;;;;2.50;0.90;;;;;;;25.57;32.38;96367.91;5025643;28;22540;-33
2021/11/21 02:37:50;;;;;;;4.75;0.80;;;;;;;25.59;32.40;96359.91;5043889;28;20555;-31
2021/11/21 02:40:16;;;;;;;1.08;0.73;;;;;;;25.56;32.44;96363.56;5042565;28;20041;-30
2021/11/21 02:42:42;;;;;;;1.42;0.80;;;;;;;25.57;32.29;96362.66;5056536;28;20032;-34
2021/11/21 02:45:10;;;;;;;1.05;0.70;;;;;;;25.57;32.36;96352.16;5041982;28;20032;-30
2021/11/21 02:47:35;;;;;;;2.17;0.85;;;;;;;25.59;32.43;96348.59;5043720;28;20036;-32
2021/11/21 02:50:05;;;;;;;5.20;0.90;;;;;;;25.57;32.34;96351.31;5043174;28;20032;-36
2021/11/21 02:52:30;;;;;;;1.00;0.80;;;;;;;25.57;32.48;96357.41;5042615;28;20565;-30
2021/11/21 02:54:56;;;;;;;1.45;0.70;;;;;;;25.57;32.36;96346.91;5044526;28;20035;-34
2021/11/21 02:57:22;;;;;;;1.40;0.63;;;;;;;25.59;32.33;96338.09;5037243;28;20480;-32
2021/11/21 02:59:48;;;;;;;0.68;0.68;;;;;;;25.57;32.25;96333.78;5040204;28;20024;-30
2021/11/21 03:02:13;;;;;;;1.15;0.75;;;;;;;25.59;32.39;96322.34;5052443;28;20037;-31
2021/11/21 03:04:39;;;;;;;1.98;0.80;;;;;;;25.59;32.35;96317.09;5039219;28;20020;-31
2021/11/21 03:07:04;;;;;;;1.67;0.93;;;;;;;25.58;32.26;96311.00;5039238;28;20143;-30
2021/11/21 03:09:29;;;;;;;1.00;0.80;;;;;;;25.57;32.43;96317.19;5042411;28;20021;-29
2021/11/21 03:11:55;;;;;;;1.35;0.70;;;;;;;25.56;32.25;96318.97;5048715;28;20049;-29
2021/11/21 03:14:20;;;;;;;3.03;0.80;;;;;;;25.57;32.32;96318.06;5028926;28;20488;-30
2021/11/21 03:16:47;;;;;;;1.95;0.82;;;;;;;25.58;32.32;96305.75;5050701;28;20436;-29
2021/11/21 03:19:13;;;;;;;2.78;0.85;;;;;;;25.57;32.42;96298.81;5044656;28;20028;-31
2021/11/21 03:21:38;;;;;;;1.35;0.60;;;;;;;25.57;32.43;96304.06;5041767;28;20024;-35
2021/11/21 03:24:04;;;;;;;1.10;0.70;;;;;;;25.57;32.36;96294.44;5047453;28;20028;-33
2021/11/21 03:26:29;;;;;;;1.65;0.70;;;;;;;25.57;32.38;96298.81;5048176;28;20036;-30
2021/11/21 03:28:55;;;;;;;0.77;0.60;;;;;;;25.57;32.28;96294.44;5065244;28;20033;-34
2021/11/21 03:31:20;;;;;;;0.80;0.60;;;;;;;25.57;32.41;96289.19;5044908;28;20086;-31
2021/11/21 03:33:45;;;;;;;1.35;0.60;;;;;;;25.56;32.39;96287.47;5047549;28;20028;-30
2021/11/21 03:36:11;;;;;;;1.23;0.63;;;;;;;25.59;32.36;96288.25;5048139;28;20760;-35
2021/11/21 03:38:36;;;;;;;0.68;0.60;;;;;;;25.56;32.32;96287.47;5050051;28;20032;-33
2021/11/21 03:41:02;;;;;;;1.15;0.70;;;;;;;25.53;32.34;96285.03;5049758;28;20056;-32
2021/11/21 03:43:27;;;;;;;1.33;0.60;;;;;;;25.56;32.41;96287.47;5046696;28;20024;-31
2021/11/21 03:45:53;;;;;;;0.85;0.50;;;;;;;25.57;32.41;96297.06;5046903;28;20068;-30
2021/11/21 03:48:19;;;;;;;0.50;0.50;;;;;;;25.56;32.33;96295.34;5049979;28;20428;-31
2021/11/21 03:50:44;;;;;;;0.85;0.70;;;;;;;25.56;32.37;96297.16;5048423;28;20024;-30
2021/11/21 03:53:10;;;;;;;3.90;0.50;;;;;;;25.57;32.41;96294.44;5049349;28;20016;-33
2021/11/21 03:55:35;;;;;;;1.70;0.70;;;;;;;25.55;32.38;96291.00;5048557;28;20043;-35
2021/11/21 03:58:00;;;;;;;1.35;0.70;;;;;;;25.55;32.46;96291.00;5047217;28;20094;-29
2021/11/21 04:00:26;;;;;;;1.58;0.80;;;;;;;25.56;32.39;96282.22;5049423;28;20472;-29
2021/11/21 04:02:52;;;;;;;0.50;0.50;;;;;;;25.56;32.43;96270.91;5042091;28;20028;-32
2021/11/21 04:05:17;;;;;;;0.40;0.40;;;;;;;25.56;32.46;96274.34;5038767;28;20533;-32
2021/11/21 04:07:43;;;;;;;0.95;0.60;;;;;;;25.55;32.34;96275.28;5040952;28;20064;-31
2021/11/21 04:10:08;;;;;;;3.20;0.90;;;;;;;25.55;32.41;96274.44;5048772;28;20075;-33
2021/11/21 04:12:34;;;;;;;0.75;0.50;;;;;;;25.54;32.46;96263.09;5041502;28;20034;-29
2021/11/21 04:15:00;;;;;;;0.55;0.47;;;;;;;25.54;32.43;96268.34;5042295;28;20059;-30
2021/11/21 04:17:27;;;;;;;0.90;0.68;;;;;;;25.55;32.46;96259.53;5045713;28;20032;-31
2021/11/21 04:19:53;;;;;;;0.52;0.40;;;;;;;25.54;32.53;96260.47;5047454;28;20452;-32
2021/11/21 04:22:18;;;;;;;0.70;0.60;;;;;;;25.52;32.44;96254.47;5047514;28;20024;-30
2021/11/21 04:24:44;;;;;;;0.73;0.40;;;;;;;25.56;32.48;96255.16;5045488;28;20638;-28
2021/11/21 04:27:11;;;;;;;1.23;0.50;;;;;;;25.54;32.58;96252.59;5043882;28;20032;-34
2021/11/21 04:29:36;;;;;;;0.50;0.50;;;;;;;25.54;32.61;96233.38;5046439;28;20024;-31
2021/11/21 04:32:02;;;;;;;0.50;0.40;;;;;;;25.56;32.61;96234.19;5043104;28;20021;-30
2021/11/21 04:34:27;;;;;;;0.75;0.43;;;;;;;25.56;32.61;96231.56;5044291;28;20753;-31
2021/11/21 04:36:55;;;;;;;0.63;0.50;;;;;;;25.55;32.55;96228.03;5048510;28;20028;-28
2021/11/21 04:39:21;;;;;;;0.73;0.40;;;;;;;25.56;32.46;96227.13;5061073;28;20032;-31
2021/11/21 04:41:47;;;;;;;1.08;0.50;;;;;;;25.56;32.54;96221.88;5046011;28;21223;-32
2021/11/21 04:44:12;;;;;;;1.20;0.63;;;;;;;25.56;32.64;96219.25;5045055;28;20028;-32
2021/11/21 04:46:38;;;;;;;0.75;0.50;;;;;;;25.57;32.48;96217.50;5045088;28;20202;-31
2021/11/21 04:49:04;;;;;;;0.63;0.50;;;;;;;25.56;32.48;96214.00;5050601;28;20035;-33
2021/11/21 04:51:30;;;;;;;0.40;0.40;;;;;;;25.56;32.60;96208.75;5065288;28;20024;-30
2021/11/21 04:53:55;;;;;;;0.70;0.40;;;;;;;25.57;32.77;96210.47;5048768;28;20512;-30
2021/11/21 04:56:22;;;;;;;1.00;0.57;;;;;;;25.57;32.53;96207.84;5045480;28;20028;-35
2021/11/21 04:58:47;;;;;;;0.32;0.30;;;;;;;25.57;32.59;96204.38;5043413;28;20029;-31
2021/11/21 05:01:13;;;;;;;1.27;0.30;;;;;;;25.56;32.59;96200.91;5043214;28;20025;-29
2021/11/21 05:03:38;;;;;;;0.52;0.50;;;;;;;25.56;32.63;96195.66;5046523;28;20029;-30
2021/11/21 05:06:03;;;;;;;0.38;0.35;;;;;;;25.56;32.67;96198.28;5044573;28;20028;-30
2021/11/21 05:08:29;;;;;;;0.52;0.40;;;;;;;25.56;32.78;96197.44;5046466;28;20046;-31
2021/11/21 05:10:54;;;;;;;0.88;0.40;;;;;;;25.57;32.77;96204.38;5047393;28;20021;-30
2021/11/21 05:13:20;;;;;;;0.40;0.32;;;;;;;25.57;32.78;96199.97;5044801;28;20033;-32
2021/11/21 05:15:45;;;;;;;0.30;0.30;;;;;;;25.57;32.73;96199.13;5044123;28;20039;-33
2021/11/21 05:18:10;;;;;;;0.40;0.35;;;;;;;25.56;32.83;96203.53;5046218;28;20027;-31
2021/11/21 05:20:36;;;;;;;0.40;0.32;;;;;;;25.57;32.74;96207.84;5045379;28;20388;-31
2021/11/21 05:23:01;;;;;;;2.35;0.50;;;;;;;25.59;32.66;96206.91;5038904;28;20033;-32
2021/11/21 05:25:27;;;;;;;0.75;0.50;;;;;;;25.58;32.77;96216.53;5061874;28;20608;-30
2021/11/21 05:27:52;;;;;;;0.85;0.50;;;;;;;25.57;32.59;96215.72;5044186;28;20031;-31
2021/11/21 05:30:20;;;;;;;2.50;0.93;;;;;;;25.59;32.14;96212.16;5044453;28;20392;-33
2021/11/21 05:32:46;;;;;;;1.45;0.70;;;;;;;25.55;31.93;96201.81;5053655;28;20686;-35
2021/11/21 05:35:11;;;;;;;0.57;0.50;;;;;;;25.54;32.17;96205.38;5046290;28;20029;-34
2021/11/21 05:37:37;;;;;;;1.45;0.40;;;;;;;25.54;32.51;96199.28;5047684;28;20032;-31
2021/11/21 05:40:06;;;;;;;1.05;0.60;;;;;;;25.53;32.63;96206.31;5043742;28;20595;-30
2021/11/21 05:42:32;;;;;;;1.40;0.50;;;;;;;25.53;32.55;96194.97;5059472;28;20028;-30
2021/11/21 05:44:57;;;;;;;1.15;0.50;;;;;;;25.53;32.63;96198.44;5047565;28;20672;-29
2021/11/21 05:47:23;;;;;;;1.05;0.28;;;;;;;25.55;32.65;96195.75;5064233;28;20020;-31
2021/11/21 05:49:48;;;;;;;0.73;0.45;;;;;;;25.55;32.75;96196.56;5043654;28;20449;-32
2021/11/21 05:52:14;;;;;;;0.40;0.38;;;;;;;25.55;32.77;96195.75;5035113;28;20029;-33
2021/11/21 05:54:40;;;;;;;1.08;0.50;;;;;;;25.55;32.80;96190.50;5041605;28;20121;-29
2021/11/21 05:57:06;;;;;;;1.13;0.47;;;;;;;25.55;32.73;96191.31;5036698;28;20130;-28
2021/11/21 05:59:35;;;;;;;0.47;0.40;;;;;;;25.55;32.81;96186.06;5033961;28;20526;-34
2021/11/21 06:02:01;;;;;;;1.17;0.30;;;;;;;25.56;32.86;96195.66;5037459;28;20057;-34
2021/11/21 06:04:26;;;;;;;2.67;0.60;;;;;;;25.57;32.88;96199.13;5037651;28;20039;-30
2021/11/21 06:06:52;;;;;;;0.65;0.50;;;;;;;25.57;33.02;96191.25;5043485;28;20032;-31
2021/11/21 06:09:17;;;;;;;0.50;0.30;;;;;;;25.56;32.92;96190.41;5045232;28;20032;-30
2021/11/21 06:11:42;;;;;;;0.90;0.50;;;;;;;25.56;32.86;96184.34;5043089;28;20032;-31
2021/11/21 06:14:08;;;;;;;1.80;0.30;;;;;;;25.57;32.81;96186.88;5043849;28;20302;-31
2021/11/21 06:16:33;;;;;;;1.27;0.50;;;;;;;25.57;33.09;96189.50;5045716;28;20032;-33
2021/11/21 06:18:59;;;;;;;0.82;0.28;;;;;;;25.59;32.87;96185.91;5047832;28;20036;-31
2021/11/21 06:21:24;;;;;;;0.30;0.30;;;;;;;25.57;33.01;96192.13;5044178;28;20051;-32
2021/11/21 06:23:50;;;;;;;1.33;0.50;;;;;;;25.59;32.84;96188.53;5045091;28;20033;-33
2021/11/21 06:26:15;;;;;;;0.22;0.22;;;;;;;25.59;33.03;96185.91;5044382;28;20052;-32
2021/11/21 06:28:41;;;;;;;0.30;0.30;;;;;;;25.59;32.95;96183.28;5048001;28;20059;-27
2021/11/21 06:31:06;;;;;;;0.40;0.32;;;;;;;25.59;33.11;96188.53;5044192;28;20021;-32
2021/11/21 06:33:31;;;;;;;0.30;0.30;;;;;;;25.59;33.04;96181.50;5040518;28;20039;-30
2021/11/21 06:35:57;;;;;;;0.65;0.30;;;;;;;25.60;32.85;96187.59;5038138;28;20032;-31
2021/11/21 06:38:22;;;;;;;0.73;0.40;;;;;;;25.61;33.06;96186.66;5041351;28;20028;-32
2021/11/21 06:40:48;;;;;;;0.88;0.52;;;;;;;25.61;32.94;96186.66;5027946;28;20017;-31
2021/11/21 06:43:13;;;;;;;0.57;0.30;;;;;;;25.62;32.98;96186.56;5037285;28;20120;-29
2021/11/21 06:45:39;;;;;;;0.47;0.40;;;;;;;25.62;33.24;96186.56;5038583;28;21617;-29
2021/11/21 06:48:11;;;;;;;1.17;0.30;;;;;;;25.62;33.10;96181.31;5038737;28;20036;-32
2021/11/21 06:50:37;;;;;;;0.25;0.25;;;;;;;25.62;32.94;96185.75;5037748;28;20059;-28
2021/11/21 06:53:04;;;;;;;0.75;0.50;;;;;;;25.63;33.07;96187.41;5039044;28;20039;-28
2021/11/21 06:55:29;;;;;;;1.55;0.38;;;;;;;25.63;33.06;96190.03;5042126;28;20358;-29
2021/11/21 06:57:55;;;;;;;0.28;0.22;;;;;;;25.63;33.08;96197.91;5062844;28;20024;-33
2021/11/21 07:00:21;;;;;;;0.50;0.40;;;;;;;25.63;33.11;96203.16;5039695;28;20029;-29
2021/11/21 07:02:46;;;;;;;0.88;0.40;;;;;;;25.64;33.04;96204.84;5054188;28;20451;-32
2021/11/21 07:05:11;;;;;;;0.57;0.40;;;;;;;25.64;33.01;96204.84;5053441;28;20112;-29
2021/11/21 07:07:37;;;;;;;1.77;0.28;;;;;;;25.65;33.07;96206.50;5036759;28;20040;-29
2021/11/21 07:10:06;;;;;;;0.30;0.30;;;;;;;25.63;33.03;96208.41;5039843;28;20051;-29
2021/11/21 07:12:32;;;;;;;0.30;0.30;;;;;;;25.65;32.94;96199.50;5043228;28;21277;-30
2021/11/21 07:14:57;;;;;;;1.08;0.28;;;;;;;25.66;32.98;96208.22;5040047;28;20035;-28
2021/11/21 07:17:23;;;;;;;0.70;0.40;;;;;;;25.67;33.02;96212.53;5039963;28;20036;-30
2021/11/21 07:19:48;;;;;;;0.73;0.35;;;;;;;25.68;32.90;96211.59;5047950;28;20032;-33
2021/11/21 07:22:13;;;;;;;3.33;0.68;;;;;;;25.66;32.59;96206.44;5043552;28;20028;-29
2021/11/21 07:24:39;;;;;;;1.83;0.70;;;;;;;25.65;32.30;96201.28;5052242;28;20503;-29
2021/11/21 07:27:04;;;;;;;0.63;0.38;;;;;;;25.65;32.47;96201.28;5040742;28;20033;-29
2021/11/21 07:29:30;;;;;;;2.30;0.50;;;;;;;25.63;32.65;96203.97;5041089;28;20039;-28
2021/11/21 07:31:57;;;;;;;0.38;0.30;;;;;;;25.63;32.88;96203.16;5043912;28;20625;-29
2021/11/21 07:34:22;;;;;;;1.00;0.38;;;;;;;25.64;33.01;96205.69;5039324;28;20055;-29
2021/11/21 07:36:48;;;;;;;0.70;0.30;;;;;;;25.65;32.95;96198.66;5045176;28;20564;-31
2021/11/21 07:39:14;;;;;;;1.05;0.25;;;;;;;25.65;33.04;96202.13;5046490;28;20114;-29
2021/11/21 07:41:40;;;;;;;0.63;0.30;;;;;;;25.67;32.93;96204.66;5045483;28;20036;-31
2021/11/21 07:44:07;;;;;;;0.30;0.30;;;;;;;25.67;33.00;96202.03;5035937;28;20039;-28
2021/11/21 07:46:32;;;;;;;0.55;0.35;;;;;;;25.68;32.99;96203.72;5037847;28;20515;-30
2021/11/21 07:48:58;;;;;;;0.70;0.30;;;;;;;25.68;32.82;96211.59;5039392;28;20060;-29
2021/11/21 07:51:23;;;;;;;1.05;0.47;;;;;;;25.68;33.15;96201.09;5051264;28;21012;-27
2021/11/21 07:53:49;;;;;;;0.35;0.30;;;;;;;25.68;32.92;96206.34;5036605;28;20098;-28
2021/11/21 07:56:14;;;;;;;0.52;0.40;;;;;;;25.69;32.89;96203.63;5039226;28;20039;-33
2021/11/21 07:58:40;;;;;;;3.55;1.20;;;;;;;25.69;33.00;96200.16;5040036;28;20028;-32
2021/11/21 08:01:05;;;;;;;3.53;1.48;;;;;;;25.69;32.77;96208.00;5039026;28;20499;-29
2021/11/21 08:03:30;;;;;;;6.40;1.55;;;;;;;25.70;32.47;96204.44;5038091;28;20033;-30
2021/11/21 08:05:56;;;;;;;2.22;1.10;;;;;;;25.69;32.71;96198.38;5045255;28;20032;-31
2021/11/21 08:08:21;;;;;;;3.60;1.40;;;;;;;25.70;32.76;96204.44;5043793;28;20267;-30
2021/11/21 08:10:47;;;;;;;3.25;1.40;;;;;;;25.69;32.71;96202.78;5045066;28;20078;-31
2021/11/21 08:13:12;;;;;;;11.13;1.98;;;;;;;25.70;32.83;96207.06;5041138;28;20084;-29
2021/11/21 08:15:38;;;;;;;7.72;1.48;;;;;;;25.70;32.77;96209.69;5038087;28;20090;-30
2021/11/21 08:18:03;;;;;;;8.32;1.70;;;;;;;25.71;32.79;96214.03;5032184;28;20040;-33
2021/11/21 08:20:29;;;;;;;7.45;1.92;;;;;;;25.70;32.86;96207.06;5039331;28;20049;-30
2021/11/21 08:22:54;;;;;;;9.80;1.88;;;;;;;25.71;32.67;96208.78;5046181;28;20021;-32
2021/11/21 08:25:20;;;;;;;10.02;1.95;;;;;;;25.71;32.66;96206.16;5047501;28;20599;-32
2021/11/21 08:27:45;;;;;;;7.13;1.90;;;;;;;25.70;32.77;96205.31;5044112;28;20024;-31
2021/11/21 08:30:11;;;;;;;5.25;1.95;;;;;;;25.72;32.63;96212.22;5046687;28;20580;-35
2021/11/21 08:32:36;;;;;;;6.20;2.17;;;;;;;25.72;32.65;96206.97;5044094;28;20032;-28
2021/11/21 08:35:03;;;;;;;6.60;2.00;;;;;;;25.72;32.74;96207.84;5044385;28;20032;-30
2021/11/21 08:37:28;;;;;;;5.47;2.10;;;;;;;25.74;32.40;96205.13;5043472;28;20029;-30
2021/11/21 08:39:54;;;;;;;10.35;2.05;;;;;;;25.72;32.97;96210.47;5043856;28;20031;-32
2021/11/21 08:42:19;;;;;;;4.60;2.35;;;;;;;25.73;32.56;96209.50;5041356;28;20021;-30
2021/11/21 08:44:45;;;;;;;17.98;2.60;;;;;;;25.73;32.77;96206.06;5043142;28;20238;-30
2021/11/21 08:47:10;;;;;;;4.22;2.55;;;;;;;25.73;32.66;96209.50;5041365;28;20607;-31
2021/11/21 08:49:37;;;;;;;7.13;3.25;;;;;;;25.72;32.36;96213.09;5040434;28;20028;-33
2021/11/21 08:52:04;;;;;;;6.15;2.70;;;;;;;25.70;32.32;96210.56;5057635;28;20046;-35
2021/11/21 08:54:29;;;;;;;6.50;4.80;;;;;;;25.70;31.75;96215.78;5043061;28;20033;-30
2021/11/21 08:56:54;;;;;;;6.93;2.55;;;;;;;25.70;32.23;96209.69;5040046;28;20028;-31
2021/11/21 08:59:20;;;;;;;6.63;2.22;;;;;;;25.71;32.41;96219.28;5039112;28;20405;-29
2021/11/21 09:01:45;;;;;;;7.40;2.60;;;;;;;25.71;32.66;96216.66;5041894;28;20025;-31
2021/11/21 09:04:13;;;;;;;4.80;2.20;;;;;;;25.72;32.71;96217.47;5041771;28;20065;-33
2021/11/21 09:06:38;;;;;;;8.15;2.53;;;;;;;25.72;32.83;96214.84;5043635;28;20028;-31
2021/11/21 09:09:03;;;;;;;5.35;2.38;;;;;;;25.73;32.98;96214.75;5055197;28;20063;-30
2021/11/21 09:11:29;;;;;;;6.10;2.05;;;;;;;25.75;33.02;96220.78;5040966;28;20476;-30
2021/11/21 09:13:54;;;;;;;3.38;1.92;;;;;;;25.75;32.93;96218.16;5038626;28;20037;-34
2021/11/21 09:16:20;;;;;;;8.68;2.28;;;;;;;25.76;32.92;96219.81;5053637;28;20028;-31
2021/11/21 09:18:45;;;;;;;6.05;2.15;;;;;;;25.78;32.95;96217.94;5044538;28;20032;-29
2021/11/21 09:21:11;;;;;;;8.80;2.40;;;;;;;25.78;33.03;96219.75;5042076;28;20043;-32
2021/11/21 09:23:37;;;;;;;5.40;2.28;;;;;;;25.79;33.18;96210.91;5040503;28;20032;-31
2021/11/21 09:26:06;;;;;;;9.38;2.17;;;;;;;25.80;33.04;96209.97;5040373;28;20074;-30
2021/11/21 09:28:32;;;;;;;4.63;2.17;;;;;;;25.80;33.35;96204.72;5042319;28;20251;-30
2021/11/21 09:30:58;;;;;;;4.80;2.00;;;;;;;25.81;33.10;96206.41;5042573;28;20029;-31
2021/11/21 09:33:23;;;;;;;4.65;2.22;;;;;;;25.79;33.10;96203.91;5042552;28;20025;-30
2021/11/21 09:35:49;;;;;;;22.48;3.00;;;;;;;25.82;32.59;96210.75;5041558;28;20507;-32
2021/11/21 09:38:17;;;;;;;13.80;2.58;;;;;;;25.80;32.29;96213.47;5040159;28;20829;-34
2021/11/21 09:40:42;;;;;;;6.20;2.45;;;;;;;25.80;32.55;96200.34;5048080;28;20028;-34
2021/11/21 09:43:08;;;;;;;7.43;5.07;;;;;;;25.79;31.09;96198.66;5043586;28;20955;-30
2021/11/21 09:45:33;;;;;;;13.45;7.55;;;;;;;25.64;26.75;96194.34;5046558;28;20492;-30
2021/11/21 09:47:59;;;;;;;7.65;6.80;;;;;;;25.42;25.49;96191.25;5040928;28;20037;-32
2021/11/21 09:50:26;;;;;;;8.07;5.90;;;;;;;25.23;26.05;96191.50;5035802;28;20033;-34
2021/11/21 09:52:51;;;;;;;10.07;4.90;;;;;;;25.11;27.33;96193.09;5055462;28;20047;-33
2021/11/21 09:55:17;;;;;;;10.60;4.40;;;;;;;25.04;28.09;96192.63;5042577;28;20021;-31
2021/11/21 09:57:43;;;;;;;6.03;3.50;;;;;;;25.00;28.89;96180.63;5041523;28;20038;-32
2021/11/21 10:00:16;;;;;;;6.07;3.40;;;;;;;24.97;29.39;96186.03;5042789;28;20090;-29
2021/11/21 10:02:43;;;;;;;5.25;3.58;;;;;;;24.98;29.54;96176.41;5045887;28;20032;-31
2021/11/21 10:05:16;;;;;;;6.70;3.20;;;;;;;24.99;29.84;96183.34;5044744;28;20032;-31
2021/11/21 10:07:42;;;;;;;7.15;3.10;;;;;;;25.02;30.16;96183.16;5039900;28;20265;-28
2021/11/21 10:10:12;;;;;;;5.70;2.97;;;;;;;25.05;30.21;96181.19;5044250;28;20889;-31
2021/11/21 10:12:41;;;;;;;4.70;3.13;;;;;;;25.08;30.23;96176.69;5036711;28;20155;-35
2021/11/21 10:15:18;;;;;;;4.70;3.10;;;;;;;25.11;30.39;96176.50;5036808;28;20034;-31
2021/11/21 10:17:46;;;;;;;5.63;3.10;;;;;;;25.15;30.39;96172.78;5036895;28;20024;-34
2021/11/21 10:20:13;;;;;;;4.80;2.90;;;;;;;25.18;30.56;96172.59;5040542;28;20033;-31
2021/11/21 10:23:01;;;;;;;6.65;2.80;;;;;;;25.21;30.75;96166.31;5042073;28;22517;-30
2021/11/21 10:25:33;;;;;;;11.35;3.30;;;;;;;25.24;30.60;96172.22;5039123;28;20033;-31
2021/11/21 10:28:02;;;;;;;;;;;;;;;25.27;30.82;96177.28;5043764;28;20166;-30
2021/11/21 10:30:29;;;;;;;32.20;5.10;;;;;;;25.30;30.83;96166.63;5042599;28;20307;-32
2021/11/21 10:32:54;;;;;;;30.00;5.25;;;;;;;25.33;30.94;96159.47;5048207;28;20028;-33
2021/11/21 10:35:22;;;;;;;28.13;4.93;;;;;;;25.37;31.06;96158.34;5050189;28;20031;-30
2021/11/21 10:37:47;;;;;;;18.10;4.38;;;;;;;25.39;31.03;96153.84;5064392;28;20512;-30
2021/11/21 10:40:15;;;;;;;19.05;4.32;;;;;;;25.42;31.03;96148.41;5039793;28;20025;-32
2021/11/21 10:42:42;;;;;;;16.48;4.30;;;;;;;25.44;31.12;96136.88;5051521;28;20033;-31
2021/11/21 10:45:08;;;;;;;22.02;4.85;;;;;;;25.48;31.09;96137.56;5047509;28;20029;-32
2021/11/21 10:47:46;;;;;;;15.15;4.10;;;;;;;25.49;31.06;96139.25;5050195;28;20032;-30
2021/11/21 10:50:24;;;;;;;15.57;3.97;;;;;;;25.51;31.16;96129.47;5048048;28;20448;-29
2021/11/21 10:52:49;;;;;;;11.90;4.30;;;;;;;25.53;31.06;96134.63;5049860;28;20024;-30
2021/11/21 10:55:15;;;;;;;16.55;4.18;;;;;;;25.55;31.21;96117.03;5049095;28;20029;-28
2021/11/21 10:57:41;;;;;;;13.10;3.97;;;;;;;25.57;31.32;96121.28;5049914;28;20036;-32
2021/11/21 11:00:14;;;;;;;11.35;4.00;;;;;;;25.59;31.20;96129.03;5057056;28;20037;-36
2021/11/21 11:02:41;;;;;;;10.60;3.83;;;;;;;25.61;31.24;96126.31;5049790;28;20302;-34
2021/11/21 11:05:24;;;;;;;12.88;3.72;;;;;;;25.62;31.27;96122.75;5063863;28;20027;-30
2021/11/21 11:07:54;;;;;;;14.13;3.95;;;;;;;25.63;31.18;96125.25;5049503;28;20208;-31
2021/11/21 11:10:24;;;;;;;10.20;3.72;;;;;;;25.66;31.40;96125.09;5051266;28;20012;-31
2021/11/21 11:12:54;;;;;;;13.52;3.40;;;;;;;25.67;31.23;96120.69;5049815;28;20579;-31
2021/11/21 11:15:19;;;;;;;15.95;3.33;;;;;;;25.67;31.45;96115.44;5049787;28;20129;-31
2021/11/21 11:17:45;;;;;;;11.38;3.17;;;;;;;25.69;31.39;96110.94;5064344;28;20431;-32
2021/11/21 11:20:12;;;;;;;9.55;3.50;;;;;;;25.70;31.32;96109.97;5048763;28;20563;-32
2021/11/21 11:22:40;;;;;;;13.80;3.88;;;;;;;25.71;31.43;96111.69;5038122;28;20052;-28
2021/11/21 11:25:07;;;;;;;10.57;3.47;;;;;;;25.73;31.52;96108.97;5050261;28;20035;-30
2021/11/21 11:27:53;;;;;;;10.45;3.30;;;;;;;25.73;31.48;96107.16;5046630;28;20044;-33